Darstellungsparameter: Aktuell verwendete Einstellungen:
Skalierung der Graphiken ... ?
xyx+y,   Skalierungsfaktor:      Skalierung: Modus: x, Faktor: 1
Darstellungszeitraum ... ?
Vom - - bis: - -   Zeitraum: 29.08.2007 - 29.08.2007
Min/Max/Avg-Anzeige ... ?
Zeige MMA aktuell
Zeige MMA Monat
Zeige MMA alles
Zeige --A aktuell
Zeige --A Monat
Zeige --A alles
Keine MMA-Anzeige
MMA:
Average (ber die Originaldaten)
MMA-Basis: 29.08.2007 - 29.08.2007
Quicknavigation für Darstellung... ?
Tage:      1T, 2T, 3T, 5T -1T -2T -3T -5T +1T +2T +3T +5T
Wochen: 1W, 2W, 3W -1W -2W -3W +1W +2W +3W
Monate: 1M, 3M, 6M -1M -3M -6M +1M +3M +6M
Jahre:    1J, 3J, 5J, 10J -1J -3J -5J -10J +1J +3J +5J +10J
Nutze für die Darstellung ... ?
Originaldaten oder Mittelwerte auf ...
Stundenbasis Tagesbasis Wochenbasis
Monatsbasis Jahresbasis      Datenbasis: Original-Daten
Darstellen als:
Statistik (Auto) Statistik J:M      Darstellung:
Zur Graphik,    zurück zur Übersicht aller Sensoren.
 
Tabellarische Datenbersicht: ?
 
Sensor: Nr:Datum:Temp:Abs-Feuchte:Windchill:Wind:
Aussen-T/F 1 29-08-2007 00:05:01 14.4 C 7.91 g/m*3 14.4 C 0 km/h
2 29-08-2007 00:17:02 14.3 C 7.62 g/m*3 14.3 C 0 km/h
3 29-08-2007 00:29:02 14.1 C 7.4 g/m*3 14.1 C 0 km/h
4 29-08-2007 00:41:02 13.9 C 7.55 g/m*3 13.9 C 0 km/h
5 29-08-2007 00:53:02 13.8 C 7.51 g/m*3 13.8 C 0 km/h
6 29-08-2007 01:05:02 13.7 C 7.22 g/m*3 13.7 C 0 km/h
7 29-08-2007 01:17:02 13.7 C 7.34 g/m*3 13.7 C 0 km/h
8 29-08-2007 01:29:02 13.7 C 7.34 g/m*3 13.7 C 0 km/h
9 29-08-2007 01:41:01 13.7 C 7.34 g/m*3 13.7 C 0 km/h
10 29-08-2007 01:53:03 13.6 C 7.18 g/m*3 13.6 C 0 km/h
11 29-08-2007 02:05:02 13.6 C 7.06 g/m*3 13.6 C 0 km/h
12 29-08-2007 02:17:02 13.5 C 7.13 g/m*3 13.5 C 0 km/h
13 29-08-2007 02:29:03 13.5 C 7.02 g/m*3 13.5 C 0 km/h
14 29-08-2007 02:41:02 13.5 C 7.02 g/m*3 13.5 C 0 km/h
15 29-08-2007 02:54:04 13.6 C 7.06 g/m*3 13.6 C 0 km/h
16 29-08-2007 03:06:04 13.6 C 7.06 g/m*3 13.6 C 0 km/h
17 29-08-2007 03:18:03 13.6 C 6.94 g/m*3 13.6 C 0 km/h
18 29-08-2007 03:30:03 13.6 C 6.94 g/m*3 13.6 C 0 km/h
19 29-08-2007 03:42:02 13.5 C 6.9 g/m*3 13.5 C 0 km/h
20 29-08-2007 03:54:02 13.4 C 6.86 g/m*3 13.4 C 0 km/h
21 29-08-2007 04:06:02 13.3 C 6.82 g/m*3 13.3 C 0 km/h
22 29-08-2007 04:18:02 13.3 C 6.82 g/m*3 13.3 C 0 km/h
23 29-08-2007 04:30:02 13.2 C 6.66 g/m*3 13.2 C 0 km/h
24 29-08-2007 04:42:02 13.1 C 6.62 g/m*3 13.1 C 0 km/h
25 29-08-2007 04:54:02 13 C 6.69 g/m*3 13 C 0 km/h
Sensor: Nr:Datum:Temp:Abs-Feuchte:Windchill:Wind:
Aussen-T/F 26 29-08-2007 05:06:02 13 C 6.8 g/m*3 13 C 0 km/h
27 29-08-2007 05:18:02 13 C 6.8 g/m*3 13 C 0 km/h
28 29-08-2007 05:30:02 13.1 C 6.85 g/m*3 13.1 C 0 km/h
29 29-08-2007 05:42:02 13.1 C 6.96 g/m*3 13.1 C 0 km/h
30 29-08-2007 05:54:02 12.9 C 6.88 g/m*3 12.9 C 0 km/h
31 29-08-2007 06:06:03 12.8 C 6.83 g/m*3 12.8 C 0 km/h
32 29-08-2007 06:18:02 12.7 C 6.9 g/m*3 12.7 C 0 km/h
33 29-08-2007 06:30:02 12.5 C 6.82 g/m*3 12.5 C 0 km/h
34 29-08-2007 06:42:02 12.5 C 6.93 g/m*3 12.5 C 0 km/h
35 29-08-2007 06:54:02 12.6 C 6.97 g/m*3 12.6 C 0 km/h
36 29-08-2007 07:06:02 12.6 C 6.97 g/m*3 12.6 C 0 km/h
37 29-08-2007 07:18:02 12.8 C 7.06 g/m*3 12.8 C 0 km/h
38 29-08-2007 07:30:02 13 C 7.14 g/m*3 13 C 0 km/h
39 29-08-2007 07:42:02 13.1 C 7.07 g/m*3 13.1 C 0 km/h
40 29-08-2007 07:54:02 13.3 C 7.39 g/m*3 13.3 C 0 km/h
41 29-08-2007 08:06:03 13.6 C 7.3 g/m*3 13.6 C 0 km/h
42 29-08-2007 08:18:02 13.8 C 7.27 g/m*3 13.8 C 0 km/h
43 29-08-2007 08:30:02 14 C 7.24 g/m*3 14 C 0 km/h
44 29-08-2007 08:42:02 14.1 C 7.28 g/m*3 14.1 C 0 km/h
45 29-08-2007 08:54:02 14.2 C 7.08 g/m*3 14.2 C 0 km/h
46 29-08-2007 09:06:03 14.6 C 7.38 g/m*3 14.6 C 0 km/h
47 29-08-2007 09:18:02 14.9 C 7.39 g/m*3 14.9 C 0 km/h
48 29-08-2007 09:30:03 14.6 C 7.01 g/m*3 14.6 C 0 km/h
49 29-08-2007 09:42:02 14.6 C 7.13 g/m*3 14.6 C 0 km/h
50 29-08-2007 09:54:02 15 C 7.05 g/m*3 15 C 0 km/h
Sensor: Nr:Datum:Temp:Abs-Feuchte:Windchill:Wind:
Aussen-T/F 51 29-08-2007 10:06:03 15.2 C 7.14 g/m*3 15.2 C 0 km/h
52 29-08-2007 10:18:02 15.3 C 7.18 g/m*3 15.3 C 0 km/h
53 29-08-2007 10:30:02 15.4 C 7.23 g/m*3 15.4 C 0 km/h
54 29-08-2007 10:42:02 15.9 C 7.04 g/m*3 15.9 C 0 km/h
55 29-08-2007 10:54:01 16.7 C 6.96 g/m*3 16.7 C 0 km/h
56 29-08-2007 11:06:01 17.1 C 6.84 g/m*3 17.1 C 0 km/h
57 29-08-2007 11:18:02 17.7 C 7.24 g/m*3 17.7 C 0 km/h
58 29-08-2007 11:30:02 18.1 C 7.11 g/m*3 18.1 C 0 km/h
59 29-08-2007 11:42:01 18.3 C 6.88 g/m*3 18.3 C 0 km/h
60 29-08-2007 11:54:02 18.4 C 6.76 g/m*3 18.4 C 0 km/h
61 29-08-2007 12:06:01 18.9 C 6.97 g/m*3 18.9 C 0 km/h
62 29-08-2007 12:18:01 19.3 C 6.63 g/m*3 19.3 C 0 km/h
63 29-08-2007 12:30:01 19.3 C 6.3 g/m*3 19.3 C 0 km/h
64 29-08-2007 12:42:02 19.9 C 6.7 g/m*3 19.9 C 0 km/h
65 29-08-2007 12:54:01 20.8 C 6.34 g/m*3 20.8 C 0 km/h
66 29-08-2007 13:06:02 21.4 C 5.81 g/m*3 21.4 C 0 km/h
67 29-08-2007 13:18:02 20.8 C 6.34 g/m*3 20.8 C 0 km/h
68 29-08-2007 13:30:02 20.4 C 5.84 g/m*3 20.4 C 0 km/h
69 29-08-2007 13:42:01 20 C 5.88 g/m*3 20 C 0 km/h
70 29-08-2007 13:54:01 21.2 C 5.74 g/m*3 21.2 C 0 km/h
71 29-08-2007 14:06:02 22.1 C 5.27 g/m*3 22.1 C 0 km/h
72 29-08-2007 14:18:02 22.8 C 5.89 g/m*3 22.8 C 0 km/h
73 29-08-2007 14:30:03 23 C 5.14 g/m*3 23 C 0 km/h
74 29-08-2007 14:42:01 23.3 C 5.23 g/m*3 23.3 C 0 km/h
75 29-08-2007 14:54:02 23.8 C 5.16 g/m*3 23.8 C 0 km/h
Sensor: Nr:Datum:Temp:Abs-Feuchte:Windchill:Wind:
Aussen-T/F 76 29-08-2007 15:06:02 22.6 C 5.22 g/m*3 22.6 C 0 km/h
77 29-08-2007 15:18:02 23.7 C 5.13 g/m*3 23.7 C 0 km/h
78 29-08-2007 15:30:02 22.7 C 4.65 g/m*3 22.7 C 0 km/h
79 29-08-2007 15:42:02 23.5 C 4.44 g/m*3 23.5 C 0 km/h
80 29-08-2007 15:54:02 22.9 C 4.5 g/m*3 22.9 C 0 km/h
81 29-08-2007 16:06:02 23.5 C 4.23 g/m*3 23.5 C 0 km/h
82 29-08-2007 16:18:02 24.3 C 4.43 g/m*3 24.3 C 0 km/h
83 29-08-2007 16:30:02 24.3 C 4.43 g/m*3 24.3 C 0 km/h
84 29-08-2007 16:42:02 24.4 C 4.45 g/m*3 24.4 C 0 km/h
85 29-08-2007 16:54:02 25 C 4.6 g/m*3 25 C 0 km/h
86 29-08-2007 17:06:03 25.2 C 4.66 g/m*3 25.2 C 0 km/h
87 29-08-2007 17:18:02 25.1 C 4.63 g/m*3 25.1 C 0 km/h
88 29-08-2007 17:30:02 23.9 C 4.33 g/m*3 23.9 C 0 km/h
89 29-08-2007 17:42:02 24.5 C 4.48 g/m*3 24.5 C 0 km/h
90 29-08-2007 17:54:02 24.6 C 4.5 g/m*3 24.6 C 0 km/h
91 29-08-2007 18:06:03 24.6 C 4.5 g/m*3 24.6 C 0 km/h
92 29-08-2007 18:18:03 24.1 C 4.38 g/m*3 24.1 C 0 km/h
93 29-08-2007 18:30:03 23.4 C 4.42 g/m*3 23.4 C 0 km/h
94 29-08-2007 18:42:02 22.7 C 4.85 g/m*3 22.7 C 0 km/h
95 29-08-2007 18:54:02 23 C 5.14 g/m*3 23 C 0 km/h
96 29-08-2007 19:06:01 23.5 C 5.29 g/m*3 23.5 C 0 km/h
97 29-08-2007 19:18:02 22.7 C 5.25 g/m*3 22.7 C 0 km/h
98 29-08-2007 19:30:02 21.8 C 5.18 g/m*3 21.8 C 0 km/h
99 29-08-2007 19:42:02 20.9 C 5.46 g/m*3 20.9 C 0 km/h
100 29-08-2007 19:54:02 19.9 C 5.67 g/m*3 19.9 C 0 km/h
Sensor: Nr:Datum:Temp:Abs-Feuchte:Windchill:Wind:
Aussen-T/F 101 29-08-2007 20:06:02 19.6 C 5.91 g/m*3 19.6 C 0 km/h
102 29-08-2007 20:18:03 19.1 C 5.9 g/m*3 19.1 C 0 km/h
103 29-08-2007 20:30:03 18.9 C 5.99 g/m*3 18.9 C 0 km/h
104 29-08-2007 20:42:02 18.7 C 5.92 g/m*3 18.7 C 0 km/h
105 29-08-2007 20:54:02 18.3 C 5.79 g/m*3 18.3 C 0 km/h
106 29-08-2007 21:06:02 18 C 5.68 g/m*3 18 C 0 km/h
107 29-08-2007 21:18:01 17.7 C 5.88 g/m*3 17.7 C 0 km/h
108 29-08-2007 21:30:01 17.5 C 5.96 g/m*3 17.5 C 0 km/h
109 29-08-2007 21:42:02 17 C 6.22 g/m*3 17 C 0 km/h
110 29-08-2007 21:54:02 16.3 C 6.24 g/m*3 16.3 C 0 km/h
111 29-08-2007 22:06:01 15.7 C 6.15 g/m*3 15.7 C 0 km/h
112 29-08-2007 22:18:01 15.4 C 6.31 g/m*3 15.4 C 0 km/h
113 29-08-2007 22:30:01 15 C 6.28 g/m*3 15 C 0 km/h
114 29-08-2007 22:42:02 14.7 C 6.3 g/m*3 14.7 C 0 km/h
115 29-08-2007 22:54:03 14.4 C 6.3 g/m*3 14.4 C 0 km/h
116 29-08-2007 23:06:02 14.1 C 6.31 g/m*3 14.1 C 0 km/h
117 29-08-2007 23:18:02 13.9 C 6.47 g/m*3 13.9 C 0 km/h
118 29-08-2007 23:30:02 13.9 C 6.47 g/m*3 13.9 C 0 km/h
119 29-08-2007 23:42:03 13.8 C 6.43 g/m*3 13.8 C 0 km/h
120 29-08-2007 23:54:02 13.7 C 6.39 g/m*3 13.7 C 0 km/h

Legende:
   Min
   Max


Maximal/Minimal-Werte vom 29.08.2007 - 29.08.2007

Sensor Min Max Avg
Temp
(Aussen-T/F)
12.5 °C
29-08-2007  06:30:02
25.2 °C
29-08-2007  17:06:03
17.29 °C
Abs-Feuchte
(Aussen-T/F)
4.23 g/m*3
29-08-2007  16:06:02
7.91 g/m*3
29-08-2007  00:05:01
6.25 g/m*3
Windchill
(Aussen-T/F)
12.5 C
29-08-2007  06:30:02
25.2 C
29-08-2007  17:06:03
17.14 C

Die Daten stammen von einer Davis Vantage Pro 2 Wetter-Station und werden unter Linux mit der Software wview2wettercgi und aufbereitet. Alle Angaben erfolgen ohne Gewähr für ihre Vollständigkeit oder Richtigkeit.
Kontakt: Rainer Krienke krienke@uni-koblenz.de . Meine Webseiten an der Uni Koblenz oder privat.
Version: $Revision: 0.78 $